Terminal Aerodrome Forecast
Issued by NWS Tampa Bay Area, FL

Home | Current Version | Previous Version | Text Only | Print | Product List | Glossary On
Versions: 1 2 3 4 5 6 7 8 9 10 11 12 13 14 15 16 17 18
000
FTUS42 KTBW 010500 RRA
TAFSRQ
TAF
KSRQ 010541Z 0106/0206 07008KT P6SM VCSH SCT015 OVC060
     FM010900 07007KT 6SM BR BKN015 BKN060
     FM011500 14008KT P6SM SCT020 SCT060
     FM011900 27008KT P6SM VCSH SCT030 BKN070
     FM020000 VRB04KT P6SM SCT030 BKN070=

USA.gov is the U.S. government's official web portal to all federal, state and local government web resources and services.